In Rescue
 
Open Full Screen Window  High Contrast Mode
Wind Gusting 00 knots
06
April 19, 2021 10:08 PM EDT
Weather Information
Wind Direction
  310 °
Wind Speed
  06 kt (7 mph)
Wind Gust
  00 kt (0 mph)
Altimeter
29.95 in
Visibility
10 SM
Temperature
05° C
41° F
Dewpoint
-01° C
30° F
Humidity
66%
Sky Condition
Overcast @ 5,000 ft
VFR

METAR KLWA 200208Z AUTO 31006KT 10SM OVC050 05/M01 A2995 RMK AO2 T00501015

FAA Disclaimer: The data displayed is for advisory purposes only and is not to be used for flight planning or operations.